Latest Weather Observations for Kingfish B

IDV60801

Issued at 8:35 pm EDT Monday 22 December 2014 (issued every 30 minutes, with the page automatically refreshed every 10 minutes)

About weather observations | Map of weather stations | Latest weather observations for VIC | Other Formats
Station Details ID: 400139 Name: KINGFISH B (PLATFORM) Lat: -38.60 Lon: 148.19 Height: 31.4 m
Data from the previous 72 hours. | See also: Recent months for locations in Victoria
Date/Time
EDT
Temp
°C
App
Temp
°C
Dew
Point
Rel
Hum
%
Delta-T
°C
Wind Press
QNH
hPa
Press
MSL
hPa
Rain
since 9 am
mm
Dir
 
Spd
km/h
Gust
km/h
Spd
kts
Gust
kts
22/08:30pm 21.0 19.6 18.9 88 1.3 ENE 24 30 13 16 1008.5 - -
22/08:20pm 21.1 20.1 18.9 87 1.4 ENE 22 24 12 13 1008.5 - -
22/08:10pm 21.1 21.5 18.9 87 1.4 ENE 15 22 8 12 1008.5 - -
22/08:00pm 21.0 21.7 18.9 88 1.3 ENE 13 15 7 8 1008.5 - -
22/07:50pm 20.9 21.3 18.9 88 1.3 ENE 15 17 8 9 1008.5 - -
22/07:40pm 20.8 20.8 18.9 89 1.2 ENE 17 22 9 12 1008.5 - -
22/07:30pm 20.7 20.1 18.9 89 1.1 ENE 20 24 11 13 1008.6 - -
22/07:20pm 20.7 19.7 18.9 89 1.1 ENE 22 26 12 14 1008.7 - -
22/07:10pm 20.7 19.3 18.9 89 1.1 ENE 24 26 13 14 1008.7 - -
22/07:00pm 20.7 19.7 18.9 89 1.1 ENE 22 24 12 13 1008.7 - -
22/06:40pm 20.8 22.3 18.9 89 1.2 E 9 15 5 8 1008.9 - -
22/06:30pm 20.9 21.3 19.0 89 1.2 ENE 15 20 8 11 1009.0 - -
22/06:20pm 20.8 20.8 19.0 89 1.1 E 17 22 9 12 1009.0 - -
22/06:10pm 20.8 20.3 19.1 90 1.1 E 20 24 11 13 1009.0 - -
22/06:00pm 20.7 19.4 19.1 90 1.0 E 24 26 13 14 1009.0 - -
22/05:50pm 20.7 20.2 19.1 90 1.0 E 20 26 11 14 1009.1 - -
22/05:40pm 20.6 19.7 19.1 91 0.9 E 22 28 12 15 1009.3 - -
22/05:30pm 20.5 18.9 19.1 92 0.9 E 26 30 14 16 1009.4 - -
22/05:20pm 20.4 18.0 19.1 92 0.8 E 30 30 16 16 1009.5 - -
22/05:10pm 20.4 18.4 19.1 92 0.8 E 28 30 15 16 1009.6 - -
22/05:00pm 20.3 19.0 19.0 92 0.8 E 24 28 13 15 1009.8 - -
22/04:50pm 20.3 19.4 19.0 92 0.8 E 22 26 12 14 1009.9 - -
22/04:40pm 20.3 19.4 19.0 92 0.8 E 22 26 12 14 1010.1 - -
22/04:30pm 20.2 19.2 18.8 92 0.9 E 22 24 12 13 1010.2 - -
22/04:20pm 20.3 19.7 18.8 91 0.9 E 20 22 11 12 1010.4 - -
22/04:10pm 20.4 20.0 18.8 90 1.0 E 19 22 10 12 1010.6 - -
22/04:00pm 20.6 20.2 18.9 90 1.1 E 19 22 10 12 1010.8 - -
22/03:50pm 20.7 20.7 19.0 90 1.1 E 17 19 9 10 1011.1 - -
22/03:40pm 20.8 20.8 19.0 89 1.1 E 17 19 9 10 1011.2 - -
22/03:30pm 20.7 20.7 19.0 90 1.1 E 17 19 9 10 1011.3 - -
22/03:20pm 20.6 20.2 18.9 90 1.1 E 19 20 10 11 1011.4 - -
22/03:10pm 20.5 20.1 18.8 90 1.1 E 19 22 10 12 1011.4 - -
22/03:00pm 20.5 20.4 18.7 89 1.1 E 17 20 9 11 1011.6 - -
22/02:50pm 20.5 20.3 18.6 89 1.2 E 17 19 9 10 1011.7 - -
22/02:40pm 20.5 20.7 18.5 88 1.2 E 15 19 8 10 1011.8 - -
22/02:30pm 20.6 20.7 18.4 87 1.4 E 15 17 8 9 1011.9 - -
22/02:10pm 20.9 21.0 18.3 85 1.6 E 15 17 8 9 1012.2 - -
22/02:00pm 21.0 21.1 18.4 85 1.6 E 15 17 8 9 1012.3 - -
22/01:50pm 21.0 21.5 18.3 84 1.7 E 13 15 7 8 1012.5 - -
22/01:30pm 21.4 21.9 18.3 82 1.9 E 13 15 7 8 1012.9 - -
22/01:20pm 21.5 22.4 18.3 82 2.0 E 11 13 6 7 1013.0 - -
22/01:10pm 21.6 22.4 18.2 81 2.1 E 11 13 6 7 1013.1 - -
22/01:00pm 21.6 22.5 18.3 81 2.1 ENE 11 15 6 8 1013.1 - -
22/12:50pm 21.5 22.0 18.3 82 2.0 E 13 15 7 8 1013.1 - -
22/12:40pm 21.5 21.3 18.4 82 1.9 E 17 19 9 10 1013.1 - -
22/12:30pm 21.5 21.3 18.4 82 1.9 E 17 19 9 10 1013.2 - -
22/12:20pm 21.3 21.0 18.3 83 1.9 E 17 20 9 11 1013.2 - -
22/12:10pm 21.5 20.9 18.4 82 1.9 E 19 20 10 11 1013.1 - -
22/12:00pm 21.6 20.7 18.3 81 2.1 E 20 22 11 12 1013.0 - -
22/11:50am 21.7 20.5 18.3 81 2.1 E 22 24 12 13 1013.0 - -
22/11:40am 22.0 21.2 18.5 80 2.2 E 20 24 11 13 1013.1 - -
22/11:30am 22.0 21.2 18.5 80 2.2 E 20 22 11 12 1013.1 - -
22/11:20am 21.9 21.4 18.7 82 2.0 E 19 20 10 11 1013.3 - -
22/11:10am 21.7 21.1 18.5 82 2.0 E 19 20 10 11 1013.3 - -
22/11:00am 21.9 21.4 18.6 81 2.1 E 19 20 10 11 1013.3 - -
22/10:50am 21.5 20.9 18.5 83 1.9 E 19 20 10 11 1013.4 - -
22/10:40am 21.6 21.3 18.3 81 2.1 E 17 20 9 11 1013.4 - -
22/10:30am 22.0 21.5 18.6 81 2.1 E 19 20 10 11 1013.4 - -
22/10:20am 21.9 21.3 18.5 81 2.1 E 19 20 10 11 1013.4 - -
22/10:10am 21.6 20.8 18.4 82 2.0 E 20 22 11 12 1013.4 - -
22/10:00am 21.7 21.0 18.3 81 2.1 E 19 20 10 11 1013.5 - -
22/09:40am 21.8 21.3 18.7 82 2.0 E 19 22 10 12 1013.4 - -
22/09:30am 21.6 21.3 18.2 81 2.1 E 17 20 9 11 1013.4 - -
22/09:20am 22.1 21.6 18.7 81 2.1 E 19 20 10 11 1013.3 - -
22/09:10am 21.9 21.8 18.7 82 2.0 E 17 20 9 11 1013.3 - -
22/09:00am 21.7 21.1 18.5 82 2.0 E 19 20 10 11 1013.1 - -
22/08:50am 21.7 21.0 18.7 83 1.9 E 20 22 11 12 1013.0 - -
22/08:40am 21.4 20.3 18.6 84 1.8 E 22 24 12 13 1012.9 - -
22/08:30am 21.1 20.3 18.5 85 1.6 E 20 24 11 13 1012.8 - -
22/08:20am 21.3 20.3 18.9 86 1.5 E 22 26 12 14 1012.7 - -
22/08:10am 20.8 20.2 18.8 88 1.3 E 20 24 11 13 1012.8 - -
22/08:00am 20.7 19.8 19.1 90 1.0 E 22 24 12 13 1012.8 - -
22/07:50am 20.3 19.8 19.0 92 0.8 E 20 22 11 12 1012.9 - -
22/07:40am 20.1 19.5 18.9 93 0.8 E 20 22 11 12 1012.9 - -
22/07:30am 19.8 19.2 18.8 94 0.6 E 20 22 11 12 1012.9 - -
22/07:20am 19.6 19.5 18.7 94 0.6 E 17 20 9 11 1012.8 - -
22/07:10am 19.3 19.1 18.5 95 0.5 E 17 20 9 11 1012.7 - -
22/07:00am 19.2 18.6 18.4 95 0.5 E 19 22 10 12 1012.7 - -
22/06:50am 19.2 19.0 18.4 95 0.5 E 17 20 9 11 1012.7 - -
22/06:40am 19.2 18.5 18.3 94 0.6 E 19 20 10 11 1012.7 - -
22/06:30am 19.3 19.0 18.3 94 0.6 ESE 17 20 9 11 1012.7 - -
22/06:20am 19.3 19.0 18.3 94 0.6 ESE 17 19 9 10 1012.7 - -
22/06:10am 19.4 19.1 18.3 93 0.7 ESE 17 19 9 10 1012.6 - -
22/06:00am 19.4 19.1 18.2 93 0.7 ESE 17 19 9 10 1012.5 - -
22/05:50am 19.5 19.5 18.2 92 0.8 ESE 15 17 8 9 1012.5 - -
22/05:40am 19.5 19.5 18.2 92 0.8 ESE 15 17 8 9 1012.4 - -
22/05:30am 19.6 19.6 18.1 91 0.9 ESE 15 19 8 10 1012.4 - -
22/05:20am 19.6 19.2 18.1 91 0.9 ESE 17 19 9 10 1012.4 - -
22/05:10am 19.7 19.3 18.1 90 1.0 ESE 17 19 9 10 1012.5 - -
22/05:00am 19.7 19.3 18.1 90 1.0 ESE 17 19 9 10 1012.5 - -
22/04:40am 19.9 19.4 17.9 88 1.2 ESE 17 19 9 10 1012.6 - -
22/04:30am 19.9 19.8 17.8 88 1.3 ESE 15 19 8 10 1012.6 - -
22/04:20am 20.2 20.0 17.5 84 1.7 SE 15 17 8 9 1012.7 - -
22/04:10am 20.6 20.5 17.0 80 2.2 ESE 13 17 7 9 1012.7 - -
22/04:00am 20.7 20.8 16.6 77 2.5 ESE 11 15 6 8 1012.8 - -
22/03:50am 21.0 21.8 16.3 74 2.8 ESE 7 13 4 7 1012.8 - -
22/03:40am 21.0 21.9 16.1 73 2.9 ESE 6 11 3 6 1012.9 - -
22/03:10am 20.8 22.1 15.2 70 3.3 NNE 2 4 1 2 1013.0 - -
22/03:00am 21.2 21.8 14.3 64 4.0 NNE 4 7 2 4 1013.0 - -
22/02:50am 20.9 20.6 13.3 62 4.4 NNE 7 11 4 6 1013.1 - -
22/02:40am 20.9 20.5 13.1 61 4.5 NNE 7 11 4 6 1013.2 - -
22/02:30am 20.9 20.9 13.5 62 4.3 NNE 6 9 3 5 1013.3 - -
22/02:20am 20.8 21.2 13.6 63 4.1 N 4 9 2 5 1013.4 - -
22/02:10am 20.7 21.0 13.5 63 4.1 N 4 9 2 5 1013.6 - -
22/02:00am 20.5 20.8 13.5 64 4.0 N 4 7 2 4 1013.7 - -
22/01:50am 20.4 20.6 14.2 67 3.6 N 6 11 3 6 1013.6 - -
22/01:40am 20.3 20.0 14.5 69 3.4 N 9 13 5 7 1013.6 - -
22/01:30am 20.2 20.3 14.5 69 3.3 N 7 11 4 6 1013.6 - -
22/01:20am 20.2 20.5 15.1 72 3.0 N 7 11 4 6 1013.6 - -
22/01:10am 20.0 20.3 15.1 73 2.9 N 7 11 4 6 1013.6 - -
22/12:50am 19.9 20.7 15.9 78 2.4 N 6 11 3 6 1013.6 - -
22/12:40am 19.8 19.7 16.1 79 2.2 N 11 17 6 9 1013.6 - -
22/12:30am 19.8 19.1 16.5 81 2.0 N 15 19 8 10 1013.6 - -
22/12:20am 19.5 19.2 16.5 83 1.8 N 13 19 7 10 1013.6 - -
22/12:10am 19.2 19.6 16.4 84 1.7 N 9 15 5 8 1013.7 - -
22/12:00am 19.4 20.5 16.5 83 1.7 NNE 6 9 3 5 1013.7 - -
 
Date/Time
EDT
Temp
°C
App
Temp
°C
Dew
Point
Rel
Hum
%
Delta-T
°C
Wind Press
QNH
hPa
Press
MSL
hPa
Rain
since 9 am
mm
Dir
 
Spd
km/h
Gust
km/h
Spd
kts
Gust
kts
21/11:50pm 19.6 20.5 16.7 83 1.8 N 7 13 4 7 1013.8 - -
21/11:40pm 19.4 19.5 16.6 84 1.7 NNE 11 13 6 7 1013.8 - -
21/11:30pm 19.5 19.4 16.9 85 1.6 NNE 13 15 7 8 1013.7 - -
21/11:20pm 19.4 20.0 16.8 85 1.6 NNE 9 13 5 7 1013.8 - -
21/11:10pm 19.6 19.9 17.0 85 1.6 NNE 11 13 6 7 1013.7 - -
21/11:00pm 19.6 19.6 17.2 86 1.5 NNE 13 15 7 8 1013.7 - -
21/10:50pm 19.7 19.0 17.3 86 1.5 NNE 17 20 9 11 1013.6 - -
21/10:40pm 19.6 19.3 17.3 86 1.4 NNE 15 19 8 10 1013.5 - -
21/10:30pm 19.6 19.4 17.5 88 1.3 NNE 15 17 8 9 1013.3 - -
21/10:20pm 19.6 19.4 17.5 88 1.3 NNE 15 17 8 9 1013.2 - -
21/10:10pm 19.6 19.0 17.5 88 1.3 NNE 17 19 9 10 1013.1 - -
21/10:00pm 19.5 18.5 17.5 88 1.2 NNE 19 20 10 11 1013.0 - -
21/09:50pm 19.5 18.4 17.4 88 1.3 NNE 19 19 10 10 1013.0 - -
21/09:40pm 19.6 18.9 17.4 87 1.3 NNE 17 19 9 10 1013.0 - -
21/09:30pm 19.7 18.7 17.5 87 1.3 NNE 19 20 10 11 1013.0 - -
21/09:10pm 19.7 18.7 17.5 87 1.3 NNE 19 20 10 11 1012.9 - -
21/09:00pm 19.8 18.8 17.5 86 1.4 NNE 19 20 10 11 1012.9 - -
21/08:50pm 19.9 19.3 17.5 86 1.5 NE 17 19 9 10 1013.0 - -
21/08:40pm 19.9 19.7 17.5 86 1.5 NE 15 17 8 9 1013.1 - -
21/08:30pm 19.9 20.0 17.4 85 1.5 NE 13 15 7 8 1013.1 - -
21/08:20pm 20.0 19.7 17.4 85 1.6 NE 15 17 8 9 1013.0 - -
21/08:10pm 20.0 19.3 17.3 84 1.7 NE 17 20 9 11 1012.9 - -
21/08:00pm 20.0 19.2 17.2 84 1.7 NE 17 19 9 10 1012.9 - -
21/07:50pm 19.9 19.4 17.0 83 1.8 NE 15 19 8 10 1013.0 - -
21/07:40pm 19.8 19.6 16.8 83 1.8 NE 13 15 7 8 1013.1 - -
21/07:30pm 19.7 19.1 16.6 82 1.9 NE 15 17 8 9 1013.0 - -
21/07:20pm 19.7 18.7 16.5 82 1.9 NE 17 17 9 9 1012.9 - -
21/07:10pm 19.6 18.9 16.4 82 1.9 NE 15 17 8 9 1012.9 - -
21/07:00pm 19.5 19.5 16.2 81 2.0 ENE 11 15 6 8 1013.0 - -
21/06:50pm 19.5 20.2 16.2 81 2.0 ENE 7 11 4 6 1013.1 - -
21/06:40pm 19.5 20.2 16.1 81 2.0 ENE 7 11 4 6 1013.1 - -
21/06:30pm 19.5 20.2 16.1 81 2.0 ENE 7 11 4 6 1013.2 - -
21/06:20pm 19.5 19.5 16.2 81 2.0 ENE 11 15 6 8 1013.3 - -
21/06:10pm 19.4 19.3 16.1 81 2.0 ENE 11 17 6 9 1013.3 - -
21/06:00pm 19.1 18.6 16.0 82 1.8 ENE 13 19 7 10 1013.3 - -
21/05:50pm 19.1 18.2 15.8 81 2.0 ENE 15 17 8 9 1013.4 - -
21/05:40pm 19.1 18.5 15.7 80 2.0 ENE 13 17 7 9 1013.6 - -
21/05:30pm 19.2 18.9 15.5 79 2.2 ENE 11 13 6 7 1013.8 - -
21/05:20pm 19.2 18.8 15.3 78 2.3 ENE 11 15 6 8 1013.9 - -
21/05:10pm 19.3 19.3 15.2 77 2.4 ENE 9 15 5 8 1014.1 - -
21/05:00pm 19.3 19.3 15.2 77 2.4 ENE 9 13 5 7 1014.2 - -
21/04:40pm 19.2 18.4 15.2 77 2.4 ENE 13 17 7 9 1014.4 - -
21/04:30pm 19.1 17.9 15.0 77 2.4 ENE 15 17 8 9 1014.4 - -
21/04:20pm 19.0 17.6 14.6 75 2.6 E 15 17 8 9 1014.6 - -
21/04:10pm 19.0 18.4 14.5 75 2.6 ENE 11 13 6 7 1014.8 - -
21/04:00pm 19.2 18.5 14.4 74 2.8 ENE 11 13 6 7 1014.9 - -
21/03:50pm 19.1 18.4 14.2 73 2.8 ENE 11 13 6 7 1015.1 - -
21/03:40pm 19.2 18.8 14.2 73 2.9 ENE 9 11 5 6 1015.2 - -
21/03:30pm 19.2 19.2 14.2 73 2.9 ENE 7 11 4 6 1015.3 - -
21/03:20pm 19.3 19.3 14.2 72 2.9 ENE 7 11 4 6 1015.2 - -
21/03:10pm 19.3 19.3 14.2 72 2.9 ENE 7 11 4 6 1015.2 - -
21/03:00pm 19.2 19.2 14.2 73 2.9 ENE 7 11 4 6 1015.2 - -
21/02:50pm 19.2 19.4 14.2 73 2.9 ENE 6 11 3 6 1015.3 - -
21/02:40pm 19.3 19.3 14.1 72 3.0 ENE 7 11 4 6 1015.4 - -
21/02:30pm 19.4 19.0 14.2 72 3.0 ENE 9 13 5 7 1015.5 - -
21/02:20pm 19.4 19.4 14.1 71 3.1 ENE 7 11 4 6 1015.5 - -
21/02:10pm 19.6 19.2 14.0 70 3.2 ENE 9 13 5 7 1015.5 - -
21/02:00pm 19.9 19.5 14.0 69 3.4 ENE 9 13 5 7 1015.6 - -
21/01:50pm 20.0 19.5 13.9 68 3.5 ENE 9 13 5 7 1015.6 - -
21/01:30pm 20.3 19.9 14.1 67 3.6 ENE 9 13 5 7 1015.8 - -
21/01:20pm 20.6 20.6 14.1 66 3.8 ENE 7 11 4 6 1015.8 - -
21/01:10pm 20.9 20.5 14.1 65 4.0 ENE 9 13 5 7 1015.8 - -
21/01:00pm 21.2 20.8 14.2 64 4.1 ENE 9 13 5 7 1016.0 - -
21/12:50pm 21.5 21.6 14.5 64 4.1 NE 7 11 4 6 1016.1 - -
21/12:40pm 21.5 21.7 14.6 65 4.1 NE 7 11 4 6 1016.1 - -
21/12:30pm 21.6 21.3 14.3 63 4.3 NE 9 13 5 7 1016.0 - -
21/12:20pm 22.0 22.0 14.3 61 4.5 NE 7 11 4 6 1016.1 - -
21/12:10pm 22.0 22.0 14.3 61 4.5 NE 7 9 4 5 1016.2 - -
21/12:00pm 21.8 21.7 14.0 61 4.5 NE 7 9 4 5 1016.2 - -
21/11:50am 22.0 21.9 13.8 59 4.8 NE 7 11 4 6 1016.2 - -
21/11:40am 22.1 21.9 13.7 59 4.9 NE 7 11 4 6 1016.2 - -
21/11:30am 22.5 22.0 13.8 58 5.1 NE 9 11 5 6 1016.2 - -
21/11:20am 22.7 22.2 13.8 57 5.2 NE 9 11 5 6 1016.2 - -
21/11:10am 22.7 22.8 13.9 57 5.1 NE 6 9 3 5 1016.3 - -
21/11:00am 23.3 23.4 13.8 55 5.6 NE 6 9 3 5 1016.1 - -
21/10:50am 23.6 23.8 14.1 55 5.6 NE 6 7 3 4 1015.9 - -
21/10:40am 23.8 23.9 13.9 54 5.8 NE 6 9 3 5 1016.0 - -
21/10:30am 24.2 24.7 14.1 53 6.0 NE 4 9 2 5 1016.1 - -
21/10:20am 23.5 24.8 14.0 55 5.6 CALM 0 2 0 1 1016.6 - -
21/10:10am 23.2 24.4 13.9 56 5.4 CALM 0 2 0 1 1016.6 - -
21/10:00am 22.8 23.9 13.6 56 5.3 CALM 0 2 0 1 1016.6 - -
21/09:50am 22.1 22.9 12.7 55 5.4 CALM 0 4 0 2 1016.5 - -
21/09:40am 21.5 22.6 13.4 60 4.7 CALM 0 2 0 1 1016.7 - -
21/09:30am 23.0 24.0 13.3 54 5.6 CALM 0 4 0 2 1016.8 - -
21/09:20am 23.5 24.6 13.4 53 5.9 CALM 0 2 0 1 1016.6 - -
21/09:10am 23.5 24.6 13.6 53 5.8 CALM 0 4 0 2 1016.6 - -
21/09:00am 23.3 24.5 13.8 55 5.6 CALM 0 4 0 2 1016.6 - -
21/08:50am 22.3 23.4 13.6 58 5.0 CALM 0 4 0 2 1016.5 - -
21/08:40am 22.4 23.6 13.7 58 5.1 CALM 0 2 0 1 1016.5 - -
21/08:30am 22.3 23.3 13.3 56 5.2 CALM 0 4 0 2 1016.4 - -
21/08:20am 22.7 23.7 13.1 54 5.5 CALM 0 2 0 1 1016.3 - -
21/08:10am 22.8 24.1 14.0 57 5.1 CALM 0 4 0 2 1016.1 - -
21/08:00am 22.3 23.3 14.4 61 4.6 N 2 4 1 2 1016.0 - -
21/07:50am 21.7 22.6 14.1 62 4.4 NNE 2 4 1 2 1015.9 - -
21/07:40am 20.8 21.7 13.9 64 4.0 NNE 2 6 1 3 1015.8 - -
21/07:30am 19.6 20.5 13.9 69 3.3 NNE 2 6 1 3 1015.6 - -
21/07:10am 17.7 18.4 13.5 76 2.4 NNE 2 6 1 3 1015.4 - -
21/07:00am 16.9 17.4 12.9 77 2.2 NNE 2 6 1 3 1015.3 - -
21/06:50am 16.8 17.2 12.6 76 2.3 NNE 2 6 1 3 1015.3 - -
21/06:40am 16.8 17.2 12.6 76 2.3 NNE 2 7 1 4 1015.4 - -
21/06:30am 16.9 17.4 12.7 76 2.3 NNE 2 6 1 3 1015.4 - -
21/06:20am 17.0 17.8 12.7 76 2.4 CALM 0 6 0 3 1015.3 - -
21/06:10am 17.2 17.7 12.9 76 2.4 NNE 2 4 1 2 1015.3 - -
21/05:50am 17.5 18.4 13.0 75 2.5 CALM 0 6 0 3 1015.3 - -
21/05:40am 17.7 18.6 13.0 74 2.6 CALM 0 4 0 2 1015.3 - -
21/05:30am 18.0 18.6 13.1 73 2.8 NNW 2 6 1 3 1015.3 - -
21/05:20am 17.9 18.5 13.1 73 2.7 NW 2 4 1 2 1015.3 - -
21/05:10am 18.1 18.8 13.3 73 2.7 NW 2 4 1 2 1015.5 - -
21/05:00am 18.1 18.7 13.2 73 2.8 NW 2 4 1 2 1015.5 - -
21/04:50am 18.2 18.8 13.2 72 2.8 NW 2 4 1 2 1015.7 - -
21/04:40am 18.4 19.1 13.3 72 2.9 NW 2 4 1 2 1015.7 - -
21/04:30am 18.5 19.2 13.5 72 2.8 NW 2 4 1 2 1015.8 - -
21/04:20am 18.5 19.2 13.5 72 2.8 WNW 2 4 1 2 1015.9 - -
21/04:10am 18.6 19.4 13.8 73 2.7 WNW 2 4 1 2 1016.1 - -
21/04:00am 18.6 19.5 14.0 74 2.6 WNW 2 4 1 2 1016.2 - -
21/03:50am 18.2 19.1 13.9 76 2.5 WNW 2 4 1 2 1016.3 - -
21/03:40am 18.0 19.3 14.2 78 2.2 CALM 0 2 0 1 1016.4 - -
21/03:30am 17.6 18.9 14.2 80 1.9 CALM 0 2 0 1 1016.5 - -
21/03:20am 17.0 18.2 13.8 81 1.8 CALM 0 2 0 1 1016.6 - -
21/03:10am 16.8 17.9 13.6 81 1.8 CALM 0 2 0 1 1016.6 - -
21/03:00am 16.9 17.7 13.6 81 1.9 W 2 4 1 2 1016.7 - -
21/02:50am 16.8 17.6 13.6 81 1.8 W 2 6 1 3 1016.8 - -
21/02:40am 16.6 17.7 13.4 81 1.8 CALM 0 2 0 1 1016.9 - -
21/02:30am 16.8 17.9 13.6 81 1.8 CALM 0 2 0 1 1016.9 - -
21/02:20am 16.8 17.6 13.6 81 1.8 WSW 2 4 1 2 1016.9 - -
21/02:10am 16.8 16.8 13.6 81 1.8 W 6 7 3 4 1016.9 - -
21/02:00am 16.5 16.4 13.3 81 1.8 WSW 6 7 3 4 1016.9 - -
21/01:50am 16.5 16.7 13.2 81 1.8 WSW 4 6 2 3 1017.0 - -
21/01:40am 16.5 16.7 13.0 80 2.0 WSW 4 7 2 4 1017.0 - -
21/01:30am 16.7 16.5 13.0 79 2.1 WSW 6 9 3 5 1017.0 - -
21/01:20am 16.8 16.1 13.1 79 2.1 WSW 9 11 5 6 1016.9 - -
21/01:10am 16.8 15.6 12.9 78 2.2 WSW 11 13 6 7 1016.9 - -
21/01:00am 16.7 15.5 12.7 77 2.2 WSW 11 13 6 7 1016.9 - -
21/12:50am 16.7 15.4 12.6 77 2.3 WSW 11 13 6 7 1017.0 - -
21/12:40am 16.8 15.5 12.5 76 2.4 WSW 11 13 6 7 1017.1 - -
21/12:30am 16.8 15.1 12.4 75 2.4 WSW 13 15 7 8 1017.0 - -
21/12:00am 17.0 15.0 12.7 76 2.4 WSW 15 19 8 10 1017.0 - -
 
Date/Time
EDT
Temp
°C
App
Temp
°C
Dew
Point
Rel
Hum
%
Delta-T
°C
Wind Press
QNH
hPa
Press
MSL
hPa
Rain
since 9 am
mm
Dir
 
Spd
km/h
Gust
km/h
Spd
kts
Gust
kts
20/11:50pm 17.0 14.6 12.7 76 2.4 WSW 17 20 9 11 1016.9 - -
20/11:40pm 17.1 14.8 13.0 77 2.3 WSW 17 20 9 11 1017.1 - -
20/11:30pm 17.1 15.2 13.1 77 2.2 WSW 15 19 8 10 1017.3 - -
20/11:20pm 17.1 14.5 13.2 78 2.2 WSW 19 20 10 11 1017.2 - -
20/11:10pm 17.1 14.5 13.1 77 2.2 SW 19 22 10 12 1017.2 - -
20/11:00pm 17.1 14.5 13.1 77 2.2 WSW 19 22 10 12 1017.2 - -
20/10:50pm 17.1 14.3 13.1 77 2.2 WSW 20 22 11 12 1017.2 - -
20/10:40pm 17.0 14.1 12.9 77 2.3 SW 20 22 11 12 1017.0 - -
20/10:30pm 17.0 13.7 12.7 76 2.4 SW 22 26 12 14 1016.8 - -
20/10:20pm 17.0 13.7 12.7 76 2.4 SW 22 26 12 14 1016.8 - -
20/10:10pm 17.1 14.1 12.7 75 2.4 SW 20 24 11 13 1016.8 - -
20/10:00pm 17.3 14.3 12.7 74 2.6 SW 20 24 11 13 1016.9 - -
20/09:50pm 17.3 14.0 12.7 74 2.6 SW 22 26 12 14 1016.9 - -
20/09:40pm 17.4 13.7 12.7 74 2.6 SW 24 28 13 15 1016.8 - -
20/09:30pm 17.4 14.1 12.7 74 2.6 SW 22 26 12 14 1016.9 - -
20/09:20pm 17.4 13.7 12.6 73 2.7 SW 24 30 13 16 1016.7 - -
20/09:10pm 17.5 13.4 12.7 73 2.7 SW 26 30 14 16 1016.7 - -
20/09:00pm 17.5 13.4 12.7 73 2.7 SW 26 30 14 16 1017.0 - -
20/08:50pm 17.6 13.5 12.7 73 2.7 SW 26 30 14 16 1016.8 - -
20/08:40pm 17.5 13.8 12.7 73 2.7 SW 24 30 13 16 1016.7 - -
20/08:30pm 17.6 13.9 12.7 73 2.7 SW 24 30 13 16 1016.7 - -
20/08:20pm 17.4 13.3 12.8 74 2.6 SSW 26 30 14 16 1016.6 - -
20/08:10pm 17.2 13.1 12.6 74 2.6 SSW 26 30 14 16 1016.6 - -
20/08:00pm 17.2 13.0 12.5 74 2.6 SSW 26 32 14 17 1016.5 - -
20/07:50pm 17.1 12.5 12.3 73 2.6 SSW 28 33 15 18 1016.6 - -
20/07:40pm 17.3 12.7 12.4 73 2.7 SSW 28 32 15 17 1016.5 - -
20/07:30pm 17.4 13.2 12.3 72 2.8 SSW 26 32 14 17 1016.5 - -
20/07:20pm 17.8 12.9 12.4 70 3.0 SSW 30 33 16 18 1016.4 - -
20/07:10pm 18.2 13.7 12.5 69 3.2 SSW 28 33 15 18 1016.2 - -
20/07:00pm 18.3 13.8 12.5 69 3.2 SSW 28 32 15 17 1016.0 - -
20/06:50pm 18.4 14.6 12.4 68 3.3 SW 24 32 13 17 1016.1 - -
20/06:40pm 18.6 14.8 12.5 67 3.4 SW 24 30 13 16 1016.0 - -
20/06:30pm 18.6 14.3 12.2 66 3.6 SW 26 30 14 16 1016.1 - -
20/06:20pm 18.5 14.2 11.9 65 3.6 SW 26 30 14 16 1016.3 - -
20/06:10pm 18.5 14.9 11.7 64 3.7 SW 22 30 12 16 1016.3 - -
20/06:00pm 18.4 14.4 11.9 66 3.6 SW 24 30 13 16 1016.4 - -
20/05:50pm 18.2 14.6 12.0 67 3.4 SW 22 28 12 15 1016.5 - -
20/05:40pm 18.4 14.5 12.0 66 3.5 SW 24 26 13 14 1016.6 - -
20/05:20pm 18.5 15.2 11.5 63 3.8 SW 20 24 11 13 1016.8 - -
20/05:10pm 18.7 15.3 11.4 62 4.0 SW 20 24 11 13 1016.7 - -
20/05:00pm 18.6 15.6 11.8 64 3.7 SW 19 24 10 13 1016.7 - -
20/04:50pm 18.7 15.2 12.1 65 3.7 SW 22 26 12 14 1016.7 - -
20/04:40pm 18.8 14.1 12.1 65 3.7 SW 28 32 15 17 1016.7 - -
20/04:30pm 18.7 14.8 12.0 65 3.7 SW 24 33 13 18 1016.7 - -
20/04:20pm 18.7 14.3 11.8 64 3.8 SW 26 32 14 17 1016.6 - -
20/04:10pm 18.9 14.6 12.1 64 3.8 WSW 26 32 14 17 1016.6 - -
20/04:00pm 18.8 15.2 12.0 64 3.8 WSW 22 30 12 16 1016.8 - -
20/03:50pm 18.9 14.5 11.8 63 3.9 WSW 26 30 14 16 1016.8 - -
20/03:40pm 19.0 15.4 11.8 63 4.0 WSW 22 28 12 15 1016.9 - -
20/03:30pm 19.2 14.8 11.6 61 4.2 WSW 26 30 14 16 1016.9 - -
20/03:20pm 19.5 15.2 11.9 61 4.2 WSW 26 32 14 17 1017.0 - -
20/03:10pm 19.7 15.3 11.7 60 4.4 WSW 26 30 14 16 1017.0 - -
20/03:00pm 20.2 15.7 11.3 56 4.9 WSW 26 32 14 17 1016.9 - -
20/02:50pm 20.4 15.1 11.2 55 5.1 WSW 30 33 16 18 1017.0 - -
20/02:40pm 20.6 16.1 11.4 55 5.1 WSW 26 32 14 17 1017.0 - -
20/02:30pm 20.5 16.0 11.4 56 5.0 WSW 26 30 14 16 1017.0 - -
20/02:20pm 20.6 16.8 11.3 55 5.1 WSW 22 28 12 15 1017.1 - -
20/02:10pm 20.6 16.0 10.9 53 5.3 WSW 26 30 14 16 1017.2 - -
20/02:00pm 20.6 15.9 10.7 53 5.4 WSW 26 30 14 16 1017.2 - -
20/01:50pm 20.6 16.3 10.7 53 5.4 WSW 24 32 13 17 1017.1 - -
20/01:40pm 20.7 16.4 10.7 52 5.5 WSW 24 28 13 15 1017.3 - -
20/01:30pm 20.6 16.2 10.4 52 5.5 WSW 24 28 13 15 1017.3 - -
20/01:20pm 20.9 16.6 10.9 52 5.5 WSW 24 28 13 15 1017.5 - -
20/01:10pm 21.1 17.2 10.8 51 5.6 WSW 22 28 12 15 1017.5 - -
20/01:00pm 20.9 17.1 11.0 53 5.4 WSW 22 30 12 16 1017.5 - -
20/12:50pm 20.9 17.1 11.0 53 5.4 WSW 22 28 12 15 1017.5 - -
20/12:40pm 20.6 17.0 10.7 53 5.4 W 20 24 11 13 1017.6 - -
20/12:30pm 20.8 17.4 11.1 53 5.3 W 20 26 11 14 1017.6 - -
20/12:20pm 20.7 17.3 11.1 54 5.3 W 20 24 11 13 1017.6 - -
20/12:10pm 20.7 17.3 11.1 54 5.3 W 20 24 11 13 1017.6 - -
20/12:00pm 20.7 17.2 10.9 53 5.4 W 20 26 11 14 1017.6 - -
20/11:50am 20.7 17.2 10.9 53 5.4 WSW 20 24 11 13 1017.5 - -
20/11:40am 20.6 17.2 10.7 53 5.4 WSW 19 24 10 13 1017.5 - -
20/11:30am 20.7 17.4 10.9 53 5.4 WSW 19 24 10 13 1017.5 - -
20/11:20am 20.8 17.5 11.0 53 5.4 WSW 19 24 10 13 1017.5 - -
20/11:10am 20.6 17.2 11.2 55 5.2 WSW 20 26 11 14 1017.5 - -
20/11:00am 20.9 17.1 11.2 54 5.4 WSW 22 28 12 15 1017.5 - -
20/10:50am 21.0 17.2 11.0 52 5.5 WSW 22 28 12 15 1017.4 - -
20/10:40am 20.9 17.4 11.0 53 5.4 WSW 20 26 11 14 1017.3 - -
20/10:30am 20.7 17.1 10.7 52 5.5 WSW 20 26 11 14 1017.4 - -
20/10:20am 20.6 17.3 10.8 53 5.4 W 19 24 10 13 1017.4 - -
20/10:00am 20.7 17.3 10.6 52 5.5 WSW 19 24 10 13 1017.2 - -
20/09:50am 20.5 16.9 10.5 52 5.4 WSW 20 26 11 14 1017.2 - -
20/09:40am 20.6 16.6 10.4 52 5.5 WSW 22 28 12 15 1017.2 - -
20/09:30am 20.3 16.6 10.2 52 5.5 WSW 20 26 11 14 1017.1 - -
20/09:20am 20.1 16.4 10.3 53 5.3 WSW 20 26 11 14 1017.0 - -
20/09:10am 20.1 15.9 9.6 51 5.6 WSW 22 26 12 14 1016.9 - -
20/08:50am 19.6 15.4 9.9 53 5.2 WSW 22 28 12 15 1016.8 - -
20/08:40am 18.8 14.8 10.4 58 4.5 WSW 22 26 12 14 1016.8 - -
20/08:30am 17.1 13.0 10.2 64 3.7 WSW 22 28 12 15 1016.7 - -
20/08:20am 16.8 12.7 10.2 65 3.5 WSW 22 30 12 16 1016.6 - -
20/08:10am 16.5 12.4 10.1 66 3.4 WSW 22 28 12 15 1016.5 - -
20/07:50am 16.2 11.9 10.6 69 3.0 WSW 24 30 13 16 1016.3 - -
20/07:40am 16.2 11.5 10.6 69 3.0 WSW 26 32 14 17 1016.2 - -
20/07:30am 16.0 12.0 10.5 70 2.9 WSW 22 28 12 15 1016.1 - -
20/07:20am 15.9 11.6 10.7 71 2.8 WSW 24 28 13 15 1016.1 - -
20/07:10am 15.8 12.9 10.9 72 2.6 WSW 17 28 9 15 1016.2 - -
20/07:00am 15.7 12.3 10.6 71 2.7 WSW 19 24 10 13 1016.2 - -
20/06:50am 15.6 12.0 10.6 72 2.6 WSW 20 24 11 13 1016.2 - -
20/06:40am 15.7 12.1 10.7 72 2.7 W 20 26 11 14 1016.2 - -
20/06:30am 15.8 12.2 10.6 71 2.8 W 20 28 11 15 1016.2 - -
20/06:20am 15.8 11.8 10.5 71 2.8 W 22 28 12 15 1016.2 - -
20/06:10am 15.8 11.8 10.5 71 2.8 WSW 22 28 12 15 1016.2 - -
20/06:00am 15.8 11.8 10.3 70 2.9 WSW 22 30 12 16 1016.1 - -
20/05:50am 15.8 11.6 9.9 68 3.1 WSW 22 32 12 17 1016.0 - -
20/05:40am 15.6 11.4 9.7 68 3.1 WSW 22 26 12 14 1015.8 - -
20/05:30am 15.7 11.6 10.2 70 2.9 SW 22 28 12 15 1016.0 - -
20/05:20am 16.1 11.7 10.3 68 3.1 WSW 24 35 13 19 1015.9 - -
20/05:10am 16.0 12.3 10.1 68 3.1 WSW 20 26 11 14 1015.9 - -
20/05:00am 15.8 12.2 9.9 68 3.1 WSW 19 22 10 12 1015.9 - -
20/04:50am 15.8 12.9 9.7 67 3.2 WSW 15 22 8 12 1016.0 - -
20/04:40am 15.8 12.1 9.5 66 3.3 WSW 19 24 10 13 1016.0 - -
20/04:30am 15.9 12.1 9.8 67 3.2 WSW 20 24 11 13 1016.1 - -
20/04:20am 15.7 11.8 9.6 67 3.2 WSW 20 24 11 13 1016.2 - -
20/04:10am 15.6 11.6 9.2 65 3.3 WSW 20 28 11 15 1016.2 - -
20/04:00am 15.5 11.6 9.3 66 3.2 WSW 20 26 11 14 1016.2 - -
20/03:50am 15.6 11.7 9.5 67 3.2 WSW 20 26 11 14 1016.2 - -
20/03:30am 15.6 10.8 9.0 65 3.4 WSW 24 30 13 16 1016.3 - -
20/03:20am 15.6 10.8 8.9 64 3.4 WSW 24 30 13 16 1016.3 - -
20/03:10am 15.6 10.9 9.1 65 3.3 WSW 24 30 13 16 1016.4 - -
20/03:00am 15.6 11.0 9.5 67 3.2 WSW 24 33 13 18 1016.5 - -
20/02:50am 15.6 10.6 9.5 67 3.2 WSW 26 32 14 17 1016.6 - -
20/02:40am 15.6 10.5 9.2 65 3.3 WSW 26 32 14 17 1016.6 - -
20/02:30am 15.5 10.0 9.3 66 3.2 SW 28 33 15 18 1016.8 - -
20/02:20am 15.5 10.4 9.2 66 3.2 WSW 26 32 14 17 1016.8 - -
20/02:10am 15.5 10.4 9.2 66 3.2 SW 26 30 14 16 1016.9 - -
20/02:00am 15.6 10.2 9.5 67 3.2 WSW 28 32 15 17 1016.8 - -
20/01:50am 15.6 10.2 9.5 67 3.2 WSW 28 33 15 18 1016.9 - -
20/01:40am 15.7 10.8 9.8 68 3.1 SW 26 32 14 17 1017.0 - -
20/01:30am 15.7 11.1 9.7 67 3.1 SW 24 32 13 17 1017.2 - -
20/01:20am 15.6 10.6 9.6 67 3.1 WSW 26 33 14 18 1017.3 - -
20/01:10am 15.5 10.9 9.5 67 3.1 SW 24 30 13 16 1017.5 - -
20/01:00am 15.5 10.4 9.2 66 3.2 SW 26 32 14 17 1017.6 - -
20/12:50am 15.5 10.0 9.1 65 3.3 SW 28 32 15 17 1017.6 - -
20/12:40am 15.7 10.3 9.5 66 3.2 SW 28 35 15 19 1017.6 - -
20/12:30am 15.8 10.0 9.3 65 3.4 SW 30 35 16 19 1017.5 - -
20/12:20am 15.8 10.7 9.3 65 3.4 WSW 26 32 14 17 1017.7 - -
20/12:10am 15.7 10.3 9.5 66 3.2 SW 28 33 15 18 1017.7 - -
20/12:00am 15.8 10.4 9.5 66 3.3 SW 28 35 15 19 1017.7 - -
 
Date/Time
EDT
Temp
°C
App
Temp
°C
Dew
Point
Rel
Hum
%
Delta-T
°C
Wind Press
QNH
hPa
Press
MSL
hPa
Rain
since 9 am
mm
Dir
 
Spd
km/h
Gust
km/h
Spd
kts
Gust
kts
19/11:50pm 15.7 9.8 9.2 65 3.4 SW 30 35 16 19 1017.7 - -
19/11:40pm 15.8 9.9 9.2 65 3.4 SW 30 37 16 20 1017.8 - -
19/11:30pm 15.7 9.8 8.9 64 3.5 SW 30 37 16 20 1017.9 - -
19/11:20pm 15.7 9.4 8.8 63 3.5 SW 32 43 17 23 1017.8 - -
19/11:10pm 15.8 9.2 8.6 62 3.7 SW 33 39 18 21 1017.7 - -
19/11:00pm 15.9 9.3 8.6 62 3.7 SW 33 41 18 22 1017.9 - -
19/10:50pm 15.9 9.5 8.5 61 3.8 SW 32 37 17 20 1017.8 - -
19/10:40pm 16.1 9.7 8.5 60 3.9 SW 32 39 17 21 1018.0 - -
19/10:30pm 16.1 9.2 8.7 61 3.8 SW 35 41 19 22 1017.9 - -
19/10:20pm 16.1 9.5 8.7 61 3.8 SW 33 43 18 23 1017.7 - -
19/10:10pm 16.2 8.9 8.7 61 3.8 SW 37 43 20 23 1017.9 - -
19/10:00pm 16.2 8.4 8.3 59 4.0 SW 39 44 21 24 1017.7 - -
19/09:50pm 16.2 8.0 8.4 60 4.0 SW 41 46 22 25 1017.8 - -
19/09:40pm 16.2 8.1 8.6 60 3.9 SSW 41 46 22 25 1017.9 - -
19/09:30pm 16.2 7.6 8.2 59 4.1 SSW 43 50 23 27 1017.7 - -
19/09:20pm 16.1 7.6 8.4 60 3.9 SSW 43 48 23 26 1018.0 - -
19/09:10pm 16.1 7.6 8.5 60 3.9 SSW 43 48 23 26 1018.0 - -
19/09:00pm 16.3 8.2 8.5 60 4.0 SSW 41 50 22 27 1017.8 - -
19/08:50pm 16.4 8.6 8.3 58 4.1 SW 39 46 21 25 1017.5 - -
19/08:40pm 16.4 8.2 8.3 58 4.1 SSW 41 48 22 26 1017.4 - -

Other Formats:

Comma delimited format used in spreadsheet applications
http://www.bom.gov.au/fwo/IDV60801/IDV60801.55039.axf

JavaScript Object Notation format (JSON) in row-major order
http://www.bom.gov.au/fwo/IDV60801/IDV60801.55039.json